Time;durP1;ratioP1;P1;durP2;ratioP2;P2;SDS_P1;SDS_P2;PMS_P1;PMS_P2;Temp;Humidity;BMP_temperature;BMP_pressure;BME280_temperature;BME280_humidity;BME280_pressure;Samples;Min_cycle;Max_cycle;Signal;HPM_P1;HPM_P2
2023/09/21 00:01:06;;;;;;;2.30;1.70;;;18.00;99.90;;;;;;4875857;29;20208;-62
2023/09/21 00:03:37;;;;;;;2.72;1.52;;;18.00;99.90;;;;;;4859227;29;20215;-62
2023/09/21 00:06:05;;;;;;;2.55;1.73;;;18.00;99.90;;;;;;4874938;29;20284;-63
2023/09/21 00:08:33;;;;;;;2.65;1.73;;;18.00;99.90;;;;;;4873359;29;20221;-64
2023/09/21 00:11:06;;;;;;;1.88;1.38;;;18.10;99.90;;;;;;4856667;29;20292;-63
2023/09/21 00:13:33;;;;;;;2.13;1.42;;;18.00;99.90;;;;;;4874106;29;20198;-63
2023/09/21 00:16:00;;;;;;;1.55;1.35;;;18.00;99.90;;;;;;4870030;29;20206;-63
2023/09/21 00:18:29;;;;;;;4.43;1.50;;;18.00;99.90;;;;;;4860789;29;20241;-63
2023/09/21 00:21:00;;;;;;;4.43;1.50;;;18.00;99.90;;;;;;4873916;29;20204;-63
2023/09/21 00:23:31;;;;;;;1.65;1.30;;;18.00;99.90;;;;;;4874196;29;20213;-63
2023/09/21 00:26:00;;;;;;;3.50;1.60;;;18.10;99.90;;;;;;4865245;29;20194;-63
2023/09/21 00:28:28;;;;;;;2.78;1.60;;;18.10;99.90;;;;;;4876346;29;20610;-65
2023/09/21 00:30:59;;;;;;;2.40;1.65;;;18.10;99.90;;;;;;4869205;29;20608;-63
2023/09/21 00:33:27;;;;;;;1.50;1.38;;;18.10;99.90;;;;;;4856830;29;20226;-63
2023/09/21 00:35:58;;;;;;;1.65;1.52;;;18.10;99.90;;;;;;4861726;29;20212;-63
2023/09/21 00:38:26;;;;;;;2.97;1.95;;;18.10;99.90;;;;;;4872895;29;20269;-63
2023/09/21 00:40:58;;;;;;;1.55;1.42;;;18.00;99.90;;;;;;4870427;29;20205;-63
2023/09/21 00:43:27;;;;;;;1.95;1.75;;;18.00;99.90;;;;;;4850762;29;20217;-63
2023/09/21 00:45:57;;;;;;;3.53;2.00;;;18.10;99.90;;;;;;4857056;29;20201;-63
2023/09/21 00:48:31;;;;;;;1.77;1.60;;;18.00;99.90;;;;;;4857196;29;20241;-63
2023/09/21 00:50:58;;;;;;;1.88;1.65;;;18.00;99.90;;;;;;4859594;29;20305;-62
2023/09/21 00:53:28;;;;;;;3.47;1.85;;;18.00;99.90;;;;;;4871879;29;20651;-66
2023/09/21 00:56:04;;;;;;;3.20;1.92;;;18.00;99.90;;;;;;4862197;29;20603;-63
2023/09/21 00:58:33;;;;;;;4.65;1.63;;;17.90;99.90;;;;;;4871760;29;20293;-62
2023/09/21 01:01:00;;;;;;;1.95;1.52;;;17.80;99.90;;;;;;4870462;29;20218;-62
2023/09/21 01:03:28;;;;;;;1.75;1.65;;;17.70;99.90;;;;;;4857596;29;20226;-62
2023/09/21 01:05:56;;;;;;;2.08;1.65;;;17.70;99.90;;;;;;4868070;29;20278;-62
2023/09/21 01:08:28;;;;;;;8.13;1.67;;;17.70;99.90;;;;;;4853318;29;20702;-63
2023/09/21 01:10:57;;;;;;;1.88;1.20;;;17.70;99.90;;;;;;4867473;29;20304;-62
2023/09/21 01:13:25;;;;;;;2.30;1.63;;;17.60;99.90;;;;;;4863245;29;20313;-62
2023/09/21 01:16:00;;;;;;;1.88;1.77;;;17.70;99.90;;;;;;4861321;29;20250;-61
2023/09/21 01:18:27;;;;;;;1.90;1.70;;;17.80;99.90;;;;;;4862479;29;20560;-61
2023/09/21 01:20:56;;;;;;;2.75;1.70;;;17.80;99.90;;;;;;4867543;29;20385;-61
2023/09/21 01:23:43;;;;;;;1.70;1.48;;;17.90;99.90;;;;;;4863640;29;20237;-63
2023/09/21 01:26:11;;;;;;;3.10;1.58;;;17.70;99.90;;;;;;4878000;29;20339;-63
2023/09/21 01:28:38;;;;;;;2.60;1.88;;;17.80;99.90;;;;;;4873995;29;20210;-62
2023/09/21 01:31:05;;;;;;;2.63;1.65;;;17.80;99.90;;;;;;4876069;29;20201;-62
2023/09/21 01:33:35;;;;;;;3.33;1.70;;;17.80;99.90;;;;;;4879700;29;20781;-64
2023/09/21 01:36:08;;;;;;;2.58;1.60;;;17.80;99.90;;;;;;4864330;29;20195;-62
2023/09/21 01:38:37;;;;;;;1.85;1.58;;;17.80;99.90;;;;;;4859648;29;20204;-61
2023/09/21 01:41:06;;;;;;;2.70;1.50;;;17.90;99.90;;;;;;4877453;29;20232;-62
2023/09/21 01:43:33;;;;;;;1.55;1.27;;;17.80;99.90;;;;;;4839952;29;20213;-62
2023/09/21 01:46:00;;;;;;;1.67;1.58;;;18.00;99.90;;;;;;4870994;29;20237;-62
2023/09/21 01:48:27;;;;;;;3.92;1.73;;;18.00;99.90;;;;;;4844605;29;20266;-62
2023/09/21 01:50:57;;;;;;;2.08;1.70;;;17.90;99.90;;;;;;4863512;29;20190;-61
2023/09/21 01:53:25;;;;;;;3.17;1.35;;;18.00;99.90;;;;;;4878245;29;20277;-61
2023/09/21 01:55:52;;;;;;;2.17;1.60;;;18.10;99.90;;;;;;4871331;29;20281;-62
2023/09/21 01:58:24;;;;;;;2.17;1.48;;;18.30;99.90;;;;;;4874762;29;20647;-63
2023/09/21 02:04:50;;;;;;;2.60;1.60;;;18.30;99.90;;;;;;4873020;29;20184;-66
2023/09/21 02:07:18;;;;;;;2.90;1.63;;;18.30;99.90;;;;;;4856655;29;20198;-70
2023/09/21 02:09:45;;;;;;;1.85;1.58;;;18.40;99.90;;;;;;4876585;29;20269;-63
2023/09/21 02:12:12;;;;;;;2.58;2.10;;;18.40;99.90;;;;;;4873501;29;20266;-63
2023/09/21 02:14:39;;;;;;;4.13;1.60;;;18.30;99.90;;;;;;4897800;29;20258;-63
2023/09/21 02:17:06;;;;;;;5.65;1.45;;;18.40;99.90;;;;;;4874575;29;20594;-63
2023/09/21 02:19:37;;;;;;;1.80;1.60;;;18.50;99.90;;;;;;4878290;29;20212;-63
2023/09/21 02:22:05;;;;;;;1.52;1.40;;;18.40;99.90;;;;;;4885165;29;20206;-64
2023/09/21 02:24:32;;;;;;;1.75;1.55;;;18.30;99.90;;;;;;4876630;29;20280;-65
2023/09/21 02:26:59;;;;;;;1.70;1.60;;;18.30;99.90;;;;;;4867498;29;20297;-65
2023/09/21 02:29:28;;;;;;;2.28;1.80;;;18.30;99.90;;;;;;4874683;29;20712;-63
2023/09/21 02:31:56;;;;;;;2.53;1.70;;;18.20;99.90;;;;;;4871137;29;20579;-64
2023/09/21 02:34:23;;;;;;;3.63;1.60;;;18.20;99.90;;;;;;4864987;29;20736;-63
2023/09/21 02:36:52;;;;;;;2.72;2.03;;;18.10;99.90;;;;;;4876625;29;20546;-63
2023/09/21 02:39:19;;;;;;;4.47;1.65;;;18.10;99.90;;;;;;4868776;29;20366;-64
2023/09/21 02:41:47;;;;;;;1.80;1.50;;;18.00;99.90;;;;;;4880118;29;20210;-63
2023/09/21 02:44:13;;;;;;;4.13;1.80;;;18.00;99.90;;;;;;4881771;29;20288;-63
2023/09/21 02:46:40;;;;;;;2.05;1.60;;;18.00;99.90;;;;;;4873264;29;20854;-63
2023/09/21 02:49:09;;;;;;;2.42;1.63;;;18.00;99.90;;;;;;4878039;29;20253;-63
2023/09/21 02:51:38;;;;;;;1.80;1.60;;;18.00;99.90;;;;;;4875062;29;20213;-63
2023/09/21 02:54:07;;;;;;;3.40;1.75;;;18.00;99.90;;;;;;4873179;29;20204;-63
2023/09/21 02:56:34;;;;;;;1.73;1.42;;;17.90;99.90;;;;;;4869627;29;20560;-63
2023/09/21 02:59:01;;;;;;;4.85;1.90;;;18.00;99.90;;;;;;4867385;29;20202;-64
2023/09/21 03:01:30;;;;;;;3.45;1.60;;;17.90;99.90;;;;;;4871554;29;20743;-64
2023/09/21 03:03:58;;;;;;;1.63;1.52;;;18.00;99.90;;;;;;4870178;29;20544;-64
2023/09/21 03:06:32;;;;;;;2.83;1.85;;;17.90;99.90;;;;;;4888854;29;20233;-63
2023/09/21 03:09:00;;;;;;;2.60;1.20;;;17.90;99.90;;;;;;4895875;29;20277;-63
2023/09/21 03:11:27;;;;;;;2.47;1.77;;;17.90;99.90;;;;;;4880342;29;20209;-62
2023/09/21 03:13:55;;;;;;;2.15;1.70;;;17.80;99.90;;;;;;4883030;29;20349;-62
2023/09/21 03:16:22;;;;;;;2.15;1.58;;;17.80;99.90;;;;;;4875128;29;20697;-62
2023/09/21 03:18:49;;;;;;;2.55;1.40;;;17.90;99.90;;;;;;4864439;29;20186;-65
2023/09/21 03:21:16;;;;;;;2.20;1.60;;;17.90;99.90;;;;;;4871233;29;20665;-65
2023/09/21 03:23:46;;;;;;;2.03;1.60;;;17.90;99.90;;;;;;4892469;29;20202;-65
2023/09/21 03:26:14;;;;;;;2.30;1.60;;;18.10;99.90;;;;;;4871528;29;20198;-65
2023/09/21 03:28:41;;;;;;;2.50;1.50;;;18.00;99.90;;;;;;4864905;29;20198;-65
2023/09/21 03:31:09;;;;;;;4.05;1.40;;;18.00;99.90;;;;;;4885440;29;20277;-64
2023/09/21 03:33:36;;;;;;;2.92;1.73;;;17.90;99.90;;;;;;4877499;29;20229;-65
2023/09/21 03:36:03;;;;;;;4.72;2.08;;;18.00;99.90;;;;;;4872420;29;20675;-65
2023/09/21 03:38:30;;;;;;;2.25;1.60;;;18.00;99.90;;;;;;4863854;29;20198;-65
2023/09/21 03:40:58;;;;;;;4.45;1.80;;;18.00;99.90;;;;;;4865255;29;20194;-65
2023/09/21 03:43:25;;;;;;;3.00;1.90;;;18.00;99.90;;;;;;4872473;29;20288;-62
2023/09/21 03:45:52;;;;;;;1.88;1.48;;;17.90;99.90;;;;;;4868683;29;20201;-64
2023/09/21 03:48:19;;;;;;;1.80;1.70;;;17.90;99.90;;;;;;4875308;29;20292;-67
2023/09/21 03:50:49;;;;;;;2.00;1.50;;;17.90;99.90;;;;;;4866259;29;20218;-62
2023/09/21 03:53:16;;;;;;;3.10;1.80;;;17.80;99.90;;;;;;4886645;29;20232;-63
2023/09/21 03:55:46;;;;;;;1.50;1.40;;;17.80;99.90;;;;;;4878292;29;20197;-64
2023/09/21 03:58:14;;;;;;;1.30;1.20;;;17.80;99.90;;;;;;4874838;29;20577;-65
2023/09/21 04:00:42;;;;;;;1.80;1.65;;;17.90;99.90;;;;;;4874203;29;20197;-63
2023/09/21 04:03:10;;;;;;;2.60;1.60;;;18.00;99.90;;;;;;4863940;29;20197;-64
2023/09/21 04:05:50;;;;;;;1.70;1.50;;;18.00;99.90;;;;;;4885245;29;20208;-63
2023/09/21 04:08:17;;;;;;;2.45;1.67;;;18.00;99.90;;;;;;4875068;29;20198;-62
2023/09/21 04:10:45;;;;;;;1.70;1.55;;;18.00;99.90;;;;;;4880401;29;20247;-62
2023/09/21 04:13:12;;;;;;;4.22;1.90;;;18.10;99.90;;;;;;4888317;29;20193;-62
2023/09/21 04:15:40;;;;;;;3.08;1.70;;;18.10;99.90;;;;;;4875523;29;20563;-63
2023/09/21 04:18:09;;;;;;;4.60;1.60;;;18.10;99.90;;;;;;4870665;29;20259;-62
2023/09/21 04:20:39;;;;;;;4.13;1.75;;;18.10;99.90;;;;;;4862987;29;20687;-62
2023/09/21 04:23:07;;;;;;;1.48;1.38;;;18.20;99.90;;;;;;4868851;29;20193;-62
2023/09/21 04:25:34;;;;;;;2.00;1.60;;;18.10;99.90;;;;;;4846197;29;20201;-62
2023/09/21 04:28:01;;;;;;;2.13;1.70;;;18.10;99.90;;;;;;4881506;29;20208;-65
2023/09/21 04:30:28;;;;;;;2.38;1.63;;;18.10;99.90;;;;;;4870834;29;20265;-64
2023/09/21 04:32:57;;;;;;;2.20;1.60;;;18.00;99.90;;;;;;4875418;29;20220;-66
2023/09/21 04:35:24;;;;;;;1.70;1.38;;;18.00;99.90;;;;;;4884372;29;20593;-63
2023/09/21 04:37:54;;;;;;;2.33;1.60;;;17.90;99.90;;;;;;4868620;29;20200;-63
2023/09/21 04:40:22;;;;;;;1.92;1.50;;;17.90;99.90;;;;;;4871922;29;20211;-64
2023/09/21 04:42:49;;;;;;;2.22;1.85;;;17.90;99.90;;;;;;4858874;29;20625;-64
2023/09/21 04:45:22;;;;;;;1.75;1.63;;;17.90;99.90;;;;;;4845150;29;20199;-64
2023/09/21 04:47:55;;;;;;;4.80;1.58;;;17.90;99.90;;;;;;4874426;29;20210;-64
2023/09/21 04:50:22;;;;;;;3.17;1.60;;;17.90;99.90;;;;;;4868933;29;20741;-62
2023/09/21 04:52:50;;;;;;;3.15;1.55;;;17.90;99.90;;;;;;4843444;29;20610;-62
2023/09/21 04:55:18;;;;;;;2.55;1.80;;;17.90;99.90;;;;;;4875086;29;20674;-62
2023/09/21 04:57:46;;;;;;;2.78;1.73;;;17.90;99.90;;;;;;4871816;29;20193;-63
2023/09/21 05:00:14;;;;;;;2.50;1.77;;;17.80;99.90;;;;;;4870675;29;20212;-64
2023/09/21 05:02:44;;;;;;;4.15;1.77;;;17.90;99.90;;;;;;4860006;29;20205;-62
2023/09/21 05:05:15;;;;;;;1.92;1.75;;;18.00;99.90;;;;;;4860533;29;20206;-63
2023/09/21 05:07:42;;;;;;;2.83;1.90;;;17.90;99.90;;;;;;4876139;29;20206;-62
2023/09/21 05:10:11;;;;;;;2.72;1.67;;;17.80;99.90;;;;;;4862618;29;20226;-62
2023/09/21 05:12:39;;;;;;;1.60;1.50;;;17.80;99.90;;;;;;4879180;29;20226;-63
2023/09/21 05:15:08;;;;;;;1.63;1.52;;;17.80;99.90;;;;;;4883752;29;20293;-63
2023/09/21 05:17:38;;;;;;;2.60;1.70;;;17.90;99.90;;;;;;4862372;29;20200;-61
2023/09/21 05:20:06;;;;;;;2.13;1.60;;;18.00;99.90;;;;;;4864476;29;20671;-63
2023/09/21 05:22:34;;;;;;;2.25;1.50;;;18.00;99.90;;;;;;4864353;29;20656;-62
2023/09/21 05:25:04;;;;;;;6.03;1.48;;;18.00;99.90;;;;;;4876750;29;20209;-62
2023/09/21 05:27:32;;;;;;;2.40;1.63;;;18.00;99.90;;;;;;4861160;29;20214;-62
2023/09/21 05:30:04;;;;;;;5.15;1.65;;;18.10;99.90;;;;;;4860557;29;20312;-64
2023/09/21 05:32:34;;;;;;;2.15;1.63;;;18.20;99.90;;;;;;4876082;29;20312;-63
2023/09/21 05:35:05;;;;;;;5.20;2.08;;;18.20;99.90;;;;;;4868469;29;20562;-64
2023/09/21 05:37:34;;;;;;;4.60;1.75;;;18.20;99.90;;;;;;4867706;29;20699;-64
2023/09/21 05:40:05;;;;;;;2.25;1.80;;;18.30;99.90;;;;;;4854727;29;20563;-64
2023/09/21 05:42:34;;;;;;;4.30;1.92;;;18.40;99.90;;;;;;4853197;29;20202;-65
2023/09/21 05:45:02;;;;;;;6.85;1.85;;;18.40;99.90;;;;;;4880581;29;20311;-69
2023/09/21 05:47:29;;;;;;;1.63;1.52;;;18.40;99.90;;;;;;4857192;29;20694;-64
2023/09/21 05:49:56;;;;;;;5.20;1.98;;;18.50;99.90;;;;;;4864028;29;20228;-63
2023/09/21 05:52:24;;;;;;;1.70;1.60;;;18.80;99.90;;;;;;4874015;29;20221;-62
2023/09/21 05:54:52;;;;;;;2.35;1.73;;;19.90;99.90;;;;;;4870134;29;20222;-63
2023/09/21 05:57:19;;;;;;;1.90;1.52;;;20.70;99.90;;;;;;4867364;29;20550;-62
2023/09/21 05:59:46;;;;;;;2.30;1.42;;;21.10;99.90;;;;;;4878661;29;20204;-74
2023/09/21 06:02:14;;;;;;;3.45;1.70;;;20.60;99.90;;;;;;4863082;29;20217;-61
2023/09/21 06:04:42;;;;;;;2.97;1.85;;;20.80;99.90;;;;;;4881410;29;20820;-64
2023/09/21 06:07:11;;;;;;;2.38;1.77;;;21.50;99.90;;;;;;4869134;29;20635;-68
2023/09/21 06:09:39;;;;;;;2.85;1.70;;;20.90;99.90;;;;;;4880729;29;20205;-63
2023/09/21 06:12:07;;;;;;;2.05;1.80;;;21.00;99.90;;;;;;4849310;29;20193;-63
2023/09/21 06:14:38;;;;;;;3.22;1.95;;;22.00;99.90;;;;;;4824878;29;1124565;-63
2023/09/21 06:17:06;;;;;;;2.25;1.70;;;22.50;99.90;;;;;;4875160;29;20190;-63
2023/09/21 06:19:35;;;;;;;2.75;1.55;;;22.70;99.90;;;;;;4888105;29;20190;-62
2023/09/21 06:22:02;;;;;;;2.38;1.73;;;22.80;99.90;;;;;;4858697;29;20202;-63
2023/09/21 06:24:30;;;;;;;2.92;1.90;;;22.70;99.90;;;;;;4868772;29;20198;-65
2023/09/21 06:26:57;;;;;;;1.67;1.58;;;22.80;99.90;;;;;;4863944;29;20278;-64
2023/09/21 06:29:24;;;;;;;2.15;1.60;;;23.60;99.90;;;;;;4875112;29;20210;-65
2023/09/21 06:32:00;;;;;;;3.22;1.80;;;24.40;99.90;;;;;;4868244;29;20249;-64
2023/09/21 06:34:42;;;;;;;4.57;2.00;;;24.20;99.90;;;;;;4860419;29;20688;-65
2023/09/21 06:37:11;;;;;;;2.80;1.90;;;24.50;99.90;;;;;;4868302;29;20902;-65
2023/09/21 06:39:38;;;;;;;2.42;1.90;;;24.60;99.90;;;;;;4874596;29;20193;-65
2023/09/21 06:42:06;;;;;;;2.30;1.83;;;25.10;99.90;;;;;;4871436;29;20207;-65
2023/09/21 06:44:34;;;;;;;1.90;1.70;;;24.50;99.90;;;;;;4871538;29;20285;-70
2023/09/21 06:47:01;;;;;;;2.65;1.80;;;25.10;99.90;;;;;;4870725;29;21154;-68
2023/09/21 06:49:29;;;;;;;3.13;1.90;;;25.60;99.90;;;;;;4864812;29;20623;-65
2023/09/21 06:51:58;;;;;;;1.65;1.55;;;25.40;99.90;;;;;;4867535;29;20710;-65
2023/09/21 06:54:26;;;;;;;4.10;1.90;;;25.90;99.90;;;;;;4882746;29;20293;-64
2023/09/21 06:56:54;;;;;;;2.17;1.70;;;25.00;99.90;;;;;;4874898;29;20318;-66
2023/09/21 06:59:21;;;;;;;2.13;1.92;;;25.60;99.90;;;;;;4887202;29;20679;-66
2023/09/21 07:01:48;;;;;;;2.67;2.10;;;26.60;99.90;;;;;;4872416;29;20661;-66
2023/09/21 07:04:17;;;;;;;3.33;2.03;;;26.40;99.90;;;;;;4879014;29;20201;-63
2023/09/21 07:06:45;;;;;;;4.05;1.90;;;26.10;99.90;;;;;;4871496;29;20198;-63
2023/09/21 07:09:12;;;;;;;2.03;1.80;;;25.60;99.90;;;;;;4865659;29;20258;-63
2023/09/21 07:11:40;;;;;;;2.03;1.83;;;24.30;99.90;;;;;;4865131;29;20678;-63
2023/09/21 07:14:07;;;;;;;4.35;2.30;;;24.00;99.90;;;;;;4872716;29;20241;-68
2023/09/21 07:16:34;;;;;;;2.85;1.65;;;24.20;99.90;;;;;;4859301;29;20214;-63
2023/09/21 07:19:04;;;;;;;1.70;1.60;;;26.70;99.90;;;;;;4854098;29;20206;-63
2023/09/21 07:21:31;;;;;;;2.60;1.80;;;27.00;99.90;;;;;;4874969;29;20734;-63
2023/09/21 07:23:58;;;;;;;5.07;2.08;;;28.20;99.90;;;;;;4858538;29;20197;-63
2023/09/21 07:26:26;;;;;;;2.15;1.98;;;28.10;99.90;;;;;;4874961;29;20734;-63
2023/09/21 07:28:53;;;;;;;2.78;2.20;;;27.60;99.90;;;;;;4867554;29;20197;-63
2023/09/21 07:31:20;;;;;;;5.40;2.10;;;26.10;99.90;;;;;;4857115;29;20582;-62
2023/09/21 07:33:47;;;;;;;2.47;2.00;;;23.70;99.90;;;;;;4865181;29;20230;-66
2023/09/21 07:36:14;;;;;;;2.92;2.00;;;23.40;99.90;;;;;;4866436;29;20198;-64
2023/09/21 07:38:41;;;;;;;2.03;1.80;;;23.90;99.90;;;;;;4874379;29;20216;-64
2023/09/21 07:41:09;;;;;;;5.13;1.75;;;23.50;99.90;;;;;;4871407;29;20245;-65
2023/09/21 07:43:36;;;;;;;2.33;2.13;;;25.20;99.90;;;;;;4871243;29;20225;-64
2023/09/21 07:46:03;;;;;;;2.40;2.20;;;26.60;99.90;;;;;;4869347;29;20194;-63
2023/09/21 07:48:30;;;;;;;3.30;2.05;;;26.40;99.90;;;;;;4869789;29;20193;-63
2023/09/21 07:50:57;;;;;;;2.00;1.80;;;27.90;99.90;;;;;;4848585;29;20735;-64
2023/09/21 07:53:27;;;;;;;2.17;1.85;;;27.50;99.90;;;;;;4872972;29;20212;-63
2023/09/21 07:56:04;;;;;;;3.15;2.03;;;28.70;99.90;;;;;;4841089;29;20209;-63
2023/09/21 07:58:31;;;;;;;1.70;1.58;;;29.70;99.90;;;;;;4862308;29;20224;-63
2023/09/21 08:00:58;;;;;;;2.80;2.20;;;28.00;99.90;;;;;;4870009;29;20210;-63
2023/09/21 08:03:26;;;;;;;2.63;2.20;;;28.10;99.90;;;;;;4872982;29;20205;-63
2023/09/21 08:05:54;;;;;;;3.00;2.47;;;28.00;99.90;;;;;;4869341;29;20194;-63
2023/09/21 08:08:27;;;;;;;2.30;1.90;;;28.30;99.90;;;;;;4871867;29;20695;-65
2023/09/21 08:10:54;;;;;;;2.60;2.40;;;28.60;99.90;;;;;;4846707;29;20232;-64
2023/09/21 08:13:23;;;;;;;3.38;2.20;;;29.00;99.90;;;;;;4871925;29;20209;-64
2023/09/21 08:15:52;;;;;;;3.08;1.90;;;27.90;99.90;;;;;;4874255;29;20665;-65
2023/09/21 08:18:21;;;;;;;6.68;2.20;;;26.50;99.90;;;;;;4876470;29;20292;-67
2023/09/21 08:20:48;;;;;;;2.75;2.05;;;26.70;99.90;;;;;;4850666;29;20244;-65
2023/09/21 08:23:17;;;;;;;2.67;2.05;;;25.70;99.90;;;;;;4862226;29;20205;-64
2023/09/21 08:25:44;;;;;;;2.78;2.30;;;25.20;99.90;;;;;;4878470;29;20503;-64
2023/09/21 08:28:11;;;;;;;2.20;2.00;;;25.00;99.90;;;;;;4877634;29;20268;-65
2023/09/21 08:30:38;;;;;;;2.17;1.98;;;26.50;99.90;;;;;;4870509;29;20236;-65
2023/09/21 08:33:08;;;;;;;4.22;2.35;;;27.50;99.90;;;;;;4871949;29;20220;-66
2023/09/21 08:39:38;;;;;;;4.78;2.03;;;30.70;99.90;;;;;;4872054;29;20560;-64
2023/09/21 08:42:05;;;;;;;4.80;2.00;;;30.10;99.90;;;;;;4858472;29;20206;-65
2023/09/21 08:44:32;;;;;;;2.92;2.42;;;28.20;99.90;;;;;;4866209;29;20205;-67
2023/09/21 08:47:00;;;;;;;2.42;2.03;;;25.90;99.90;;;;;;4882301;29;20680;-65
2023/09/21 08:49:29;;;;;;;3.47;2.15;;;25.00;99.90;;;;;;4874218;29;20220;-65
2023/09/21 08:52:00;;;;;;;3.47;2.22;;;24.70;99.90;;;;;;4875147;29;20229;-65
2023/09/21 08:54:28;;;;;;;2.30;2.10;;;24.80;99.90;;;;;;4876325;29;20280;-63
2023/09/21 08:56:56;;;;;;;2.85;2.17;;;25.20;99.90;;;;;;4875967;29;20206;-63
2023/09/21 08:59:24;;;;;;;2.22;2.05;;;25.30;99.90;;;;;;4877134;29;20285;-64
2023/09/21 09:01:52;;;;;;;2.75;2.03;;;27.50;99.90;;;;;;4861486;29;20641;-63
2023/09/21 09:04:20;;;;;;;2.40;2.20;;;28.10;99.90;;;;;;4884122;29;20197;-63
2023/09/21 09:06:48;;;;;;;2.70;2.03;;;27.10;99.90;;;;;;4878730;29;20720;-63
2023/09/21 09:09:15;;;;;;;2.50;2.10;;;26.50;99.90;;;;;;4867217;29;20234;-64
2023/09/21 09:11:44;;;;;;;5.55;2.30;;;25.40;99.90;;;;;;4865399;29;20267;-63
2023/09/21 09:14:17;;;;;;;4.72;2.05;;;27.20;99.90;;;;;;4878171;29;20926;-63
2023/09/21 09:16:46;;;;;;;2.70;2.00;;;28.00;99.90;;;;;;4868249;29;20646;-63
2023/09/21 09:19:14;;;;;;;2.33;2.13;;;27.30;99.90;;;;;;4875648;29;20205;-63
2023/09/21 09:21:41;;;;;;;2.50;2.30;;;26.00;99.90;;;;;;4874667;29;20681;-65
2023/09/21 09:24:09;;;;;;;2.83;1.90;;;25.90;99.90;;;;;;4876859;29;20194;-65
2023/09/21 09:26:38;;;;;;;2.13;2.03;;;26.00;99.90;;;;;;4878797;29;20701;-65
2023/09/21 09:29:12;;;;;;;4.75;2.20;;;25.70;99.90;;;;;;4857012;29;20197;-65
2023/09/21 09:31:41;;;;;;;3.25;2.05;;;24.80;99.90;;;;;;4869516;29;20210;-65
2023/09/21 09:34:12;;;;;;;3.22;2.20;;;25.10;99.90;;;;;;4867277;29;20273;-65
2023/09/21 09:36:41;;;;;;;3.17;2.00;;;25.00;99.90;;;;;;4865958;29;20208;-64
2023/09/21 09:39:09;;;;;;;2.17;1.98;;;25.00;99.90;;;;;;4866262;29;20193;-64
2023/09/21 09:41:37;;;;;;;2.30;2.10;;;24.90;99.90;;;;;;4861330;29;20202;-64
2023/09/21 09:44:08;;;;;;;3.83;2.22;;;25.60;99.90;;;;;;4866895;29;20234;-64
2023/09/21 09:46:41;;;;;;;2.65;2.25;;;26.90;99.90;;;;;;4877357;29;20194;-64
2023/09/21 09:49:10;;;;;;;3.05;2.00;;;26.00;99.90;;;;;;4869130;29;20311;-64
2023/09/21 09:51:44;;;;;;;6.55;2.50;;;25.20;99.90;;;;;;4875111;29;20240;-63
2023/09/21 09:54:17;;;;;;;2.15;1.95;;;26.00;99.90;;;;;;4876805;29;20770;-63
2023/09/21 09:56:45;;;;;;;2.97;2.25;;;25.60;99.90;;;;;;4874311;29;20202;-64
2023/09/21 09:59:12;;;;;;;2.10;1.90;;;25.80;99.90;;;;;;4873828;29;20320;-68
2023/09/21 10:01:41;;;;;;;2.47;2.05;;;26.60;99.90;;;;;;4873549;29;20210;-64
2023/09/21 10:04:08;;;;;;;4.50;1.98;;;26.80;99.90;;;;;;4880755;29;20213;-64
2023/09/21 10:06:36;;;;;;;2.20;1.85;;;27.10;99.90;;;;;;4865617;29;20208;-64
2023/09/21 10:09:13;;;;;;;1.98;1.80;;;26.60;99.90;;;;;;4865181;29;20567;-64
2023/09/21 10:11:46;;;;;;;2.40;1.85;;;26.00;99.90;;;;;;4872098;29;20213;-64
2023/09/21 10:14:13;;;;;;;5.05;2.00;;;26.00;99.90;;;;;;4862359;29;20741;-64
2023/09/21 10:16:49;;;;;;;4.25;2.13;;;26.90;99.90;;;;;;4859614;29;20210;-63
2023/09/21 10:19:17;;;;;;;2.30;2.10;;;28.40;99.90;;;;;;4871958;29;20193;-63
2023/09/21 10:21:45;;;;;;;2.85;1.90;;;28.50;99.90;;;;;;4882510;29;20656;-63
2023/09/21 10:24:12;;;;;;;2.10;1.90;;;28.10;99.90;;;;;;4861760;29;20758;-64
2023/09/21 10:26:44;;;;;;;2.30;1.77;;;27.10;99.90;;;;;;4874980;29;20281;-66
2023/09/21 10:29:12;;;;;;;2.05;1.95;;;27.30;99.90;;;;;;4868549;29;20695;-63
2023/09/21 10:31:43;;;;;;;2.15;1.98;;;27.10;99.90;;;;;;4859193;29;20714;-63
2023/09/21 10:34:12;;;;;;;2.30;2.10;;;26.50;99.90;;;;;;4876207;29;20217;-63
2023/09/21 10:36:46;;;;;;;1.95;1.85;;;26.00;99.90;;;;;;4867413;29;20710;-62
2023/09/21 10:39:17;;;;;;;2.10;1.90;;;25.90;99.90;;;;;;4872060;29;20202;-62
2023/09/21 10:41:45;;;;;;;2.17;2.03;;;26.10;99.90;;;;;;4873393;29;20194;-63
2023/09/21 10:44:51;;;;;;;3.83;2.17;;;26.20;99.90;;;;;;4878375;29;20215;-63
2023/09/21 10:47:29;;;;;;;2.20;2.00;;;26.20;99.90;;;;;;4873479;29;20193;-62
2023/09/21 10:50:02;;;;;;;2.10;1.90;;;26.50;99.90;;;;;;4873886;29;20197;-68
2023/09/21 10:52:31;;;;;;;2.38;2.10;;;26.70;99.90;;;;;;4872742;29;20674;-62
2023/09/21 10:54:58;;;;;;;2.58;1.95;;;26.30;99.90;;;;;;4879673;29;20205;-62
2023/09/21 10:57:27;;;;;;;2.80;1.90;;;26.50;99.90;;;;;;4872821;29;20221;-64
2023/09/21 10:59:58;;;;;;;2.20;2.08;;;27.00;99.90;;;;;;4865162;29;20197;-79
2023/09/21 11:02:40;;;;;;;2.33;2.10;;;26.40;99.90;;;;;;4873722;29;20304;-63
2023/09/21 11:05:08;;;;;;;2.10;1.90;;;26.00;99.90;;;;;;4872719;29;20238;-66
2023/09/21 11:07:36;;;;;;;7.63;2.47;;;26.30;99.90;;;;;;4865112;29;20225;-65
2023/09/21 11:10:07;;;;;;;2.88;2.15;;;26.40;99.90;;;;;;4874268;29;20205;-64
2023/09/21 11:12:38;;;;;;;3.30;2.03;;;25.90;99.90;;;;;;4874264;29;20563;-62
2023/09/21 11:15:09;;;;;;;2.40;2.20;;;27.20;99.90;;;;;;4879228;29;20323;-64
2023/09/21 11:17:36;;;;;;;2.13;1.92;;;27.40;99.90;;;;;;4843879;29;20205;-63
2023/09/21 11:20:04;;;;;;;2.28;2.05;;;26.60;99.90;;;;;;4876619;29;20735;-63
2023/09/21 11:22:33;;;;;;;2.30;2.10;;;27.40;99.90;;;;;;4883858;29;20205;-63
2023/09/21 11:25:00;;;;;;;1.88;1.77;;;27.10;99.90;;;;;;4879604;29;20228;-63
2023/09/21 11:27:28;;;;;;;2.88;2.10;;;27.60;99.90;;;;;;4874451;29;20204;-64
2023/09/21 11:29:55;;;;;;;3.28;2.00;;;28.30;99.90;;;;;;4875155;29;20202;-63
2023/09/21 11:32:22;;;;;;;3.38;2.50;;;27.20;99.90;;;;;;4871519;29;20225;-64
2023/09/21 11:34:57;;;;;;;2.63;2.10;;;26.90;99.90;;;;;;4861527;29;20198;-63
2023/09/21 11:37:28;;;;;;;4.13;2.10;;;26.10;99.90;;;;;;4869029;29;20197;-63
2023/09/21 11:39:55;;;;;;;2.00;1.90;;;26.20;99.90;;;;;;4877504;29;20224;-67
2023/09/21 11:42:25;;;;;;;1.77;1.67;;;26.30;99.90;;;;;;4877047;29;20210;-64
2023/09/21 11:44:52;;;;;;;2.20;2.05;;;26.00;99.90;;;;;;4880382;29;20205;-64
2023/09/21 11:47:22;;;;;;;2.10;1.90;;;26.10;99.90;;;;;;4883927;29;20693;-63
2023/09/21 11:49:53;;;;;;;1.90;1.80;;;26.20;99.90;;;;;;4860258;29;20638;-64
2023/09/21 11:52:23;;;;;;;1.83;1.73;;;26.90;99.90;;;;;;4855478;29;20218;-64
2023/09/21 11:54:52;;;;;;;6.20;2.10;;;26.80;99.90;;;;;;4872191;29;20554;-65
2023/09/21 11:57:22;;;;;;;2.20;2.00;;;26.70;99.90;;;;;;4885303;29;20670;-65
2023/09/21 11:59:51;;;;;;;2.33;2.13;;;26.10;99.90;;;;;;4855535;29;20277;-64
2023/09/21 12:02:18;;;;;;;2.78;2.05;;;25.70;99.90;;;;;;4873248;29;20198;-64
2023/09/21 12:04:45;;;;;;;2.08;1.83;;;26.00;99.90;;;;;;4872127;29;20526;-64
2023/09/21 12:07:14;;;;;;;2.88;2.25;;;26.10;99.90;;;;;;4869556;29;20566;-64
2023/09/21 12:09:41;;;;;;;3.33;2.13;;;26.30;99.90;;;;;;4878465;29;20200;-67
2023/09/21 12:12:13;;;;;;;2.35;2.15;;;26.90;99.90;;;;;;4881870;29;20224;-64
2023/09/21 12:14:42;;;;;;;3.47;2.22;;;26.60;99.90;;;;;;4874985;29;20237;-64
2023/09/21 12:17:19;;;;;;;4.53;2.20;;;25.80;99.90;;;;;;4871157;29;20726;-64
2023/09/21 12:19:46;;;;;;;2.70;1.90;;;25.80;99.90;;;;;;4869009;29;20282;-64
2023/09/21 12:22:12;;;;;;;1.95;1.85;;;25.90;99.90;;;;;;4871147;29;20201;-64
2023/09/21 12:24:39;;;;;;;2.00;1.80;;;26.20;99.90;;;;;;4869323;29;20679;-64
2023/09/21 12:27:07;;;;;;;2.10;1.70;;;26.70;99.90;;;;;;4874431;29;20202;-63
2023/09/21 12:29:34;;;;;;;2.40;2.20;;;26.80;99.90;;;;;;4871000;29;20911;-64
2023/09/21 12:32:04;;;;;;;2.53;2.03;;;27.30;99.90;;;;;;4871808;29;20233;-64
2023/09/21 12:34:32;;;;;;;2.30;2.10;;;27.60;99.90;;;;;;4858819;29;20216;-64
2023/09/21 12:36:59;;;;;;;1.85;1.75;;;27.50;99.90;;;;;;4872636;29;20190;-65
2023/09/21 12:39:27;;;;;;;2.30;2.10;;;28.10;99.90;;;;;;4859234;29;20595;-64
2023/09/21 12:41:55;;;;;;;2.03;1.90;;;28.80;99.90;;;;;;4870506;29;20194;-67
2023/09/21 12:44:22;;;;;;;2.33;2.13;;;28.60;99.90;;;;;;4871325;29;20607;-64
2023/09/21 12:46:50;;;;;;;3.75;1.90;;;27.90;99.90;;;;;;4871689;29;20209;-64
2023/09/21 12:49:17;;;;;;;2.08;1.90;;;27.50;99.90;;;;;;4869312;29;20213;-64
2023/09/21 12:51:45;;;;;;;2.00;1.90;;;26.60;99.90;;;;;;4870314;29;20703;-64
2023/09/21 12:54:12;;;;;;;3.10;1.95;;;26.00;99.90;;;;;;4866786;29;20302;-64
2023/09/21 12:56:39;;;;;;;2.17;1.98;;;25.60;99.90;;;;;;4870036;29;20272;-64
2023/09/21 12:59:07;;;;;;;4.55;1.80;;;25.80;99.90;;;;;;4852533;29;20695;-69
2023/09/21 13:01:34;;;;;;;3.50;1.80;;;25.60;99.90;;;;;;4859243;29;20241;-65
2023/09/21 13:04:03;;;;;;;3.28;1.92;;;26.10;99.90;;;;;;4875618;29;20325;-67